Wiscotta, Iowa
Current Conditions -  °F | °C
As of 6:55 PM on Friday 19 Dec 2014 (Local Time) from KPRO Reporting Station
Haze Haze  
Wind Chill: 26°   Ceiling: 1000
Heat Index: 32°   Visibility: 5mi
Dew Point: 31°   Wind: 7mph
Humidity: 97%   Direction: 140°SE
Pressure: 30.18"   Gusts: NA
Location:  41.5743°N, 94.1829°W
Report Text: KPRO 200055Z AUTO 14006KT 5SM BR OVC010 00/00 A3018 RMK AO2 T00001004
Loading
Personal Weather Stations






























Interactive Weather Map New forecast layout! Learn more

10-Day Weather Forecast

Advertisements
Track Severe Weather on mobile